createdAt,value
2018-03-16T00:03:24.973Z,79.50
2018-03-16T00:13:26.598Z,82.90
2018-03-16T00:23:28.886Z,90.30
2018-03-16T00:33:30.441Z,90.30
2018-03-16T00:43:32.038Z,91.90
2018-03-16T00:53:33.539Z,93.60
2018-03-16T01:03:35.067Z,94.30
2018-03-16T01:13:36.601Z,94.40
2018-03-16T01:23:38.181Z,95.00
2018-03-16T01:33:39.777Z,94.70
2018-03-16T01:43:41.334Z,95.50
2018-03-16T01:53:42.854Z,95.30
2018-03-16T02:03:44.400Z,95.50
2018-03-16T02:13:45.957Z,95.40
2018-03-16T02:23:47.496Z,95.50
2018-03-16T02:33:49.101Z,95.40
2018-03-16T02:43:50.617Z,95.40
2018-03-16T02:53:53.126Z,95.10
2018-03-16T03:03:54.639Z,95.00
2018-03-16T03:13:57.838Z,94.00
2018-03-16T03:23:59.406Z,94.00
2018-03-16T03:34:00.953Z,94.30
2018-03-16T03:44:02.482Z,93.70
2018-03-16T03:54:04.745Z,92.90
2018-03-16T04:04:06.277Z,92.80
2018-03-16T04:14:07.861Z,92.80
2018-03-16T04:24:09.476Z,92.50
2018-03-16T04:34:11.031Z,92.60
2018-03-16T04:44:12.564Z,92.30
2018-03-16T04:54:14.109Z,90.90
2018-03-16T05:04:15.651Z,90.60
2018-03-16T05:14:17.164Z,90.80
2018-03-16T05:24:18.694Z,90.80
2018-03-16T05:34:20.289Z,91.10
2018-03-16T05:44:22.616Z,91.30
2018-03-16T05:54:24.872Z,91.70
2018-03-16T06:04:26.454Z,91.60
2018-03-16T06:14:28.192Z,91.20
2018-03-16T06:24:29.737Z,90.90
2018-03-16T06:34:32.028Z,91.00
2018-03-16T06:44:33.787Z,91.00
2018-03-16T06:54:35.305Z,91.20
2018-03-16T07:04:36.865Z,91.00
2018-03-16T07:14:38.615Z,90.50
2018-03-16T07:24:40.170Z,90.00
2018-03-16T07:34:42.454Z,88.40
2018-03-16T07:44:44.014Z,88.40
2018-03-16T07:54:45.550Z,89.00
2018-03-16T08:04:47.108Z,89.60
2018-03-16T08:14:48.632Z,89.50
2018-03-16T08:24:50.368Z,88.00
2018-03-16T08:34:51.916Z,86.90
2018-03-16T08:44:53.487Z,85.80
2018-03-16T08:54:55.775Z,83.10
2018-03-16T09:04:57.322Z,83.00
2018-03-16T09:14:58.862Z,80.80
2018-03-16T09:25:00.429Z,79.50
2018-03-16T09:35:02.033Z,79.30
2018-03-16T09:45:03.604Z,77.40
2018-03-16T09:55:23.641Z,76.00
2018-03-16T10:05:25.278Z,71.90
2018-03-16T10:15:26.799Z,72.20
2018-03-16T10:25:28.310Z,70.20
2018-03-16T10:35:29.857Z,68.40
2018-03-16T10:45:31.478Z,68.50
2018-03-16T10:55:33.036Z,65.00
2018-03-16T11:26:33.930Z,67.40
2018-03-16T11:36:35.505Z,67.40
2018-03-16T11:46:37.049Z,70.40
2018-03-16T11:56:39.417Z,72.80
2018-03-16T12:06:40.973Z,72.80
2018-03-16T12:16:43.238Z,70.30
2018-03-16T12:26:44.770Z,70.10
2018-03-16T12:36:46.333Z,69.70
2018-03-16T12:46:48.893Z,63.20
2018-03-16T12:56:50.407Z,60.80
2018-03-16T13:06:52.721Z,59.90
2018-03-16T13:16:54.819Z,59.20
2018-03-16T13:26:56.659Z,60.10
2018-03-16T13:36:58.498Z,58.00
2018-03-16T13:47:00.637Z,58.80
2018-03-16T13:57:02.473Z,66.30
2018-03-16T14:07:05.196Z,81.60
2018-03-16T14:17:07.245Z,81.50
2018-03-16T14:27:09.514Z,83.60
2018-03-16T14:37:13.556Z,88.00
2018-03-16T14:47:15.338Z,88.00
2018-03-16T14:57:17.371Z,81.00
2018-03-16T15:07:19.165Z,86.30
2018-03-16T15:17:21.298Z,88.40
2018-03-16T15:27:23.427Z,91.40
2018-03-16T15:37:25.236Z,92.60
2018-03-16T15:47:27.943Z,94.20
2018-03-16T15:57:30.069Z,94.10
2018-03-16T16:07:32.688Z,94.30
2018-03-16T16:17:34.406Z,94.20
2018-03-16T16:27:36.891Z,93.00
2018-03-16T16:37:38.951Z,94.60
2018-03-16T16:47:41.448Z,95.00
2018-03-16T16:57:43.171Z,94.90
2018-03-16T17:07:44.795Z,94.60
2018-03-16T17:17:46.315Z,95.00
2018-03-16T17:27:47.897Z,95.70
2018-03-16T17:37:49.715Z,95.60
2018-03-16T17:47:52.597Z,95.60
2018-03-16T17:57:54.869Z,95.40
2018-03-16T18:08:00.208Z,94.10
2018-03-16T18:18:04.467Z,94.20
2018-03-16T18:28:06.971Z,94.60
2018-03-16T18:38:09.340Z,94.50
2018-03-16T18:48:10.980Z,94.50
2018-03-16T18:58:12.877Z,93.30
2018-03-16T19:08:15.517Z,94.10
2018-03-16T19:18:17.611Z,92.10
2018-03-16T19:28:19.450Z,88.50
2018-03-16T19:38:21.170Z,89.30
2018-03-16T19:48:24.988Z,87.80
2018-03-16T19:58:27.907Z,87.80
2018-03-16T20:08:29.883Z,87.90
2018-03-16T20:18:32.546Z,89.30
2018-03-16T20:28:34.517Z,88.60
2018-03-16T20:38:37.180Z,86.20
2018-03-16T20:48:38.820Z,86.20
2018-03-16T20:58:40.709Z,86.30
2018-03-16T21:08:42.806Z,86.20
2018-03-16T21:18:45.663Z,85.70
2018-03-16T21:28:48.654Z,85.80
2018-03-16T21:38:50.710Z,85.80
2018-03-16T21:48:52.516Z,85.30
2018-03-16T21:58:55.228Z,84.50
2018-03-16T22:08:57.080Z,84.40
2018-03-16T22:19:00.045Z,82.70
2018-03-16T22:29:02.029Z,82.00
2018-03-16T22:39:03.864Z,81.70
2018-03-16T22:49:05.988Z,81.40
2018-03-16T22:59:08.069Z,81.10
2018-03-16T23:09:10.699Z,80.70
2018-03-16T23:19:12.522Z,80.70
2018-03-16T23:29:16.102Z,79.60
2018-03-16T23:39:18.730Z,78.00
2018-03-16T23:49:20.471Z,78.00
2018-03-16T23:59:23.233Z,78.00
